Time;durP1;ratioP1;P1;durP2;ratioP2;P2;SDS_P1;SDS_P2;PMS_P1;PMS_P2;Temp;Humidity;BMP_temperature;BMP_pressure;BME280_temperature;BME280_humidity;BME280_pressure;Samples;Min_cycle;Max_cycle;Signal;HPM_P1;HPM_P2
2023/12/01 00:00:46;;;;;;;0.10;0.10;;;8.80;99.90;;;;;;5099701;28;20410;-82
2023/12/01 00:03:12;;;;;;;0.10;0.10;;;8.80;99.90;;;;;;5105207;28;20126;-82
2023/12/01 00:05:37;;;;;;;0.10;0.10;;;8.80;99.90;;;;;;5103979;28;20027;-83
2023/12/01 00:08:03;;;;;;;0.10;0.10;;;8.70;99.90;;;;;;5099678;28;20450;-83
2023/12/01 00:10:29;;;;;;;0.00;0.00;;;8.70;99.90;;;;;;5104644;28;20036;-83
2023/12/01 00:12:54;;;;;;;0.13;0.13;;;8.80;99.90;;;;;;5105417;28;20041;-82
2023/12/01 00:15:20;;;;;;;0.00;0.00;;;8.80;99.90;;;;;;5103015;28;20028;-83
2023/12/01 00:17:46;;;;;;;0.10;0.10;;;8.80;99.90;;;;;;5105928;28;20118;-82
2023/12/01 00:20:12;;;;;;;0.10;0.10;;;8.70;99.90;;;;;;5104344;28;20030;-83
2023/12/01 00:22:37;;;;;;;0.10;0.10;;;8.60;99.90;;;;;;5105801;28;20122;-83
2023/12/01 00:25:03;;;;;;;0.52;0.52;;;8.60;99.90;;;;;;5097934;28;20023;-82
2023/12/01 00:27:29;;;;;;;0.00;0.00;;;8.50;99.90;;;;;;5104897;28;20039;-83
2023/12/01 00:29:55;;;;;;;0.10;0.10;;;8.50;99.90;;;;;;5096381;28;20067;-82
2023/12/01 00:32:20;;;;;;;0.57;0.57;;;8.50;99.90;;;;;;5101722;28;20510;-81
2023/12/01 00:34:46;;;;;;;0.00;0.00;;;8.40;99.90;;;;;;5104767;28;20035;-83
2023/12/01 00:37:16;;;;;;;0.00;0.00;;;8.40;99.90;;;;;;5098621;28;20031;-82
2023/12/01 00:39:42;;;;;;;0.10;0.10;;;8.50;99.90;;;;;;5102732;28;20027;-81
2023/12/01 00:42:07;;;;;;;0.00;0.00;;;8.50;99.90;;;;;;5101144;28;20023;-82
2023/12/01 00:44:33;;;;;;;0.10;0.10;;;8.50;99.90;;;;;;5104161;28;20073;-81
2023/12/01 00:46:59;;;;;;;0.00;0.00;;;8.50;99.90;;;;;;5105149;28;20962;-82
2023/12/01 00:49:24;;;;;;;0.10;0.10;;;8.60;99.90;;;;;;5104527;28;20122;-84
2023/12/01 00:51:50;;;;;;;0.00;0.00;;;8.50;99.90;;;;;;5103674;28;20114;-81
2023/12/01 00:54:15;;;;;;;0.10;0.10;;;8.40;99.90;;;;;;5091212;28;20038;-81
2023/12/01 00:56:41;;;;;;;0.10;0.10;;;8.40;99.90;;;;;;5102813;28;20066;-82
2023/12/01 00:59:07;;;;;;;0.00;0.00;;;8.50;99.90;;;;;;5102387;28;20107;-82
2023/12/01 01:01:33;;;;;;;0.10;0.10;;;8.50;99.90;;;;;;5103250;28;20065;-81
2023/12/01 01:03:59;;;;;;;1.98;0.65;;;8.50;99.90;;;;;;5103642;28;20393;-80
2023/12/01 01:06:24;;;;;;;0.10;0.10;;;8.50;99.90;;;;;;5104646;28;20036;-83
2023/12/01 01:08:50;;;;;;;0.10;0.10;;;8.50;99.90;;;;;;5097393;28;20053;-82
2023/12/01 01:11:16;;;;;;;0.10;0.10;;;8.50;99.90;;;;;;5098913;28;20027;-80
2023/12/01 01:13:42;;;;;;;0.10;0.10;;;8.40;99.90;;;;;;5103119;28;20432;-81
2023/12/01 01:16:09;;;;;;;0.10;0.10;;;8.40;99.90;;;;;;5103309;28;20031;-83
2023/12/01 01:18:35;;;;;;;0.10;0.10;;;8.40;99.90;;;;;;5102678;28;20041;-80
2023/12/01 01:21:01;;;;;;;0.10;0.10;;;8.30;99.90;;;;;;5102776;28;20019;-83
2023/12/01 01:23:27;;;;;;;0.00;0.00;;;8.40;99.90;;;;;;5101444;27;20040;-81
2023/12/01 01:25:52;;;;;;;0.10;0.10;;;8.40;99.90;;;;;;5103071;28;20043;-82
2023/12/01 01:28:18;;;;;;;0.80;0.75;;;8.40;99.90;;;;;;5102062;28;20031;-85
2023/12/01 01:30:44;;;;;;;0.10;0.10;;;8.30;99.90;;;;;;5095929;28;20487;-81
2023/12/01 01:33:09;;;;;;;0.10;0.10;;;8.40;99.90;;;;;;5100962;28;20040;-81
2023/12/01 01:35:35;;;;;;;0.08;0.08;;;8.40;99.90;;;;;;5104057;28;20028;-83
2023/12/01 01:38:01;;;;;;;0.10;0.10;;;8.40;99.90;;;;;;5104094;28;20028;-82
2023/12/01 01:40:26;;;;;;;0.10;0.10;;;8.40;99.90;;;;;;5100052;28;20028;-81
2023/12/01 01:42:52;;;;;;;0.20;0.20;;;8.40;99.90;;;;;;5089942;28;20053;-83
2023/12/01 01:45:18;;;;;;;0.10;0.10;;;8.40;99.90;;;;;;5092612;28;20028;-82
2023/12/01 01:47:44;;;;;;;0.10;0.10;;;8.40;99.90;;;;;;5104217;27;20050;-82
2023/12/01 01:50:09;;;;;;;0.10;0.10;;;8.40;99.90;;;;;;5103388;27;20390;-85
2023/12/01 01:52:36;;;;;;;0.10;0.10;;;8.40;99.90;;;;;;5103328;28;20437;-81
2023/12/01 01:55:03;;;;;;;0.10;0.10;;;8.30;99.90;;;;;;5101730;28;20512;-83
2023/12/01 01:57:35;;;;;;;0.10;0.10;;;8.30;99.90;;;;;;5103105;28;20097;-86
2023/12/01 02:00:01;;;;;;;0.22;0.22;;;8.20;99.90;;;;;;5102280;28;20070;-83
2023/12/01 02:02:27;;;;;;;0.10;0.10;;;8.20;99.90;;;;;;5102164;28;20499;-82
2023/12/01 02:04:53;;;;;;;0.10;0.10;;;8.30;99.90;;;;;;5100373;28;20093;-82
2023/12/01 02:07:25;;;;;;;0.03;0.03;;;8.30;99.90;;;;;;5100860;28;20059;-82
2023/12/01 02:09:51;;;;;;;0.10;0.10;;;8.30;99.90;;;;;;5102660;28;20028;-83
2023/12/01 02:12:17;;;;;;;0.10;0.10;;;8.30;99.90;;;;;;5104014;28;20027;-81
2023/12/01 02:14:42;;;;;;;0.10;0.10;;;8.30;99.90;;;;;;5098903;28;20043;-81
2023/12/01 02:17:08;;;;;;;0.10;0.10;;;8.20;99.90;;;;;;5102200;28;20028;-82
2023/12/01 02:19:33;;;;;;;0.00;0.00;;;8.30;99.90;;;;;;5103525;28;20073;-81
2023/12/01 02:21:59;;;;;;;0.00;0.00;;;8.30;99.90;;;;;;5099345;28;20478;-81
2023/12/01 02:24:25;;;;;;;0.10;0.10;;;8.20;99.90;;;;;;5090651;28;20077;-82
2023/12/01 02:26:50;;;;;;;0.10;0.10;;;8.20;99.90;;;;;;5093791;28;20525;-83
2023/12/01 02:29:16;;;;;;;0.00;0.00;;;8.10;99.90;;;;;;5102004;28;20019;-82
2023/12/01 02:31:42;;;;;;;0.10;0.10;;;8.10;99.90;;;;;;5097350;28;20502;-82
2023/12/01 02:34:07;;;;;;;0.10;0.10;;;8.10;99.90;;;;;;5086359;28;20086;-82
2023/12/01 02:36:33;;;;;;;0.10;0.10;;;8.10;99.90;;;;;;5095635;28;20035;-82
2023/12/01 02:38:58;;;;;;;0.10;0.10;;;8.10;99.90;;;;;;5100682;28;20397;-83
2023/12/01 02:41:24;;;;;;;0.10;0.10;;;8.10;99.90;;;;;;5102967;28;20024;-84
2023/12/01 02:43:50;;;;;;;0.20;0.20;;;8.20;99.90;;;;;;5102595;28;20039;-83
2023/12/01 02:46:22;;;;;;;0.10;0.10;;;8.10;99.90;;;;;;5100659;28;20042;-82
2023/12/01 02:48:48;;;;;;;0.10;0.10;;;8.10;99.90;;;;;;5102384;28;20024;-81
2023/12/01 02:51:13;;;;;;;0.10;0.10;;;8.10;99.90;;;;;;5102656;28;20554;-83
2023/12/01 02:53:39;;;;;;;0.00;0.00;;;8.00;99.90;;;;;;5093910;28;20039;-82
2023/12/01 02:56:05;;;;;;;0.10;0.10;;;8.10;99.90;;;;;;5090348;28;20060;-83
2023/12/01 02:58:31;;;;;;;0.83;0.83;;;8.10;99.90;;;;;;5090129;28;20484;-82
2023/12/01 03:00:57;;;;;;;0.10;0.10;;;8.10;99.90;;;;;;5098459;28;20315;-81
2023/12/01 03:03:23;;;;;;;0.10;0.10;;;8.10;99.90;;;;;;5102057;28;20027;-82
2023/12/01 03:05:48;;;;;;;0.93;0.88;;;8.10;99.90;;;;;;5099016;28;20084;-82
2023/12/01 03:08:14;;;;;;;0.10;0.10;;;8.10;99.90;;;;;;5095988;28;20028;-81
2023/12/01 03:10:40;;;;;;;0.10;0.10;;;8.10;99.90;;;;;;5099282;28;20024;-81
2023/12/01 03:13:05;;;;;;;0.00;0.00;;;8.00;99.90;;;;;;5100844;28;20065;-83
2023/12/01 03:15:31;;;;;;;0.10;0.10;;;8.00;99.90;;;;;;5102553;28;20032;-82
2023/12/01 03:17:58;;;;;;;0.10;0.10;;;8.00;99.90;;;;;;5102736;28;20035;-82
2023/12/01 03:20:27;;;;;;;0.10;0.10;;;7.80;99.90;;;;;;5092707;28;20036;-82
2023/12/01 03:22:54;;;;;;;0.10;0.10;;;7.80;99.90;;;;;;5091832;28;20024;-82
2023/12/01 03:25:19;;;;;;;0.00;0.00;;;7.80;99.90;;;;;;5103770;28;20024;-83
2023/12/01 03:27:47;;;;;;;0.10;0.10;;;7.70;99.90;;;;;;5104700;28;20046;-83
2023/12/01 03:30:18;;;;;;;0.10;0.10;;;7.70;99.90;;;;;;5105147;28;20031;-81
2023/12/01 03:32:48;;;;;;;0.10;0.10;;;7.70;99.90;;;;;;5101008;28;20023;-82
2023/12/01 03:35:16;;;;;;;0.20;0.20;;;7.70;99.90;;;;;;5105527;28;20023;-84
2023/12/01 03:37:43;;;;;;;0.10;0.10;;;7.70;99.90;;;;;;5100894;28;20031;-81
2023/12/01 03:40:12;;;;;;;0.10;0.10;;;7.60;99.90;;;;;;5103094;28;20020;-82
2023/12/01 03:42:43;;;;;;;0.10;0.10;;;7.50;99.90;;;;;;5105741;28;20020;-82
2023/12/01 03:45:12;;;;;;;0.10;0.10;;;7.50;99.90;;;;;;5103028;28;20035;-82
2023/12/01 03:47:39;;;;;;;0.10;0.10;;;7.60;99.90;;;;;;5098787;28;20023;-82
2023/12/01 03:50:05;;;;;;;0.10;0.10;;;7.50;99.90;;;;;;5102538;28;20027;-83
2023/12/01 03:52:31;;;;;;;0.10;0.10;;;7.50;99.90;;;;;;5106282;28;20038;-83
2023/12/01 03:54:59;;;;;;;0.10;0.10;;;7.50;99.90;;;;;;5100015;28;20035;-81
2023/12/01 03:57:27;;;;;;;0.10;0.10;;;7.60;99.90;;;;;;5101512;28;20039;-82
2023/12/01 03:59:53;;;;;;;0.10;0.10;;;7.60;99.90;;;;;;5100294;28;20028;-82
2023/12/01 04:02:19;;;;;;;0.10;0.10;;;7.60;99.90;;;;;;5098511;28;20035;-82
2023/12/01 04:04:45;;;;;;;0.10;0.10;;;7.60;99.90;;;;;;5102457;28;20065;-82
2023/12/01 04:07:11;;;;;;;0.10;0.10;;;7.60;99.90;;;;;;5103104;28;20049;-83
2023/12/01 04:09:37;;;;;;;0.10;0.10;;;7.50;99.90;;;;;;5091306;28;20075;-82
2023/12/01 04:12:03;;;;;;;0.00;0.00;;;7.60;99.90;;;;;;5098566;28;20024;-83
2023/12/01 04:14:29;;;;;;;0.10;0.10;;;7.60;99.90;;;;;;5105144;28;20070;-83
2023/12/01 04:16:56;;;;;;;0.10;0.10;;;7.60;99.90;;;;;;5099940;28;20032;-84
2023/12/01 04:19:22;;;;;;;0.10;0.10;;;7.60;99.90;;;;;;5103638;28;20031;-83
2023/12/01 04:21:47;;;;;;;0.05;0.05;;;7.60;99.90;;;;;;5096699;28;20436;-83
2023/12/01 04:24:13;;;;;;;0.00;0.00;;;7.60;99.90;;;;;;5094759;28;20051;-83
2023/12/01 04:26:39;;;;;;;0.05;0.05;;;7.60;99.90;;;;;;5100399;28;20474;-83
2023/12/01 04:29:04;;;;;;;0.10;0.10;;;7.80;99.90;;;;;;5100205;28;20057;-83
2023/12/01 04:31:31;;;;;;;0.10;0.10;;;7.80;99.90;;;;;;5092239;28;20054;-83
2023/12/01 04:33:56;;;;;;;0.10;0.10;;;7.70;99.90;;;;;;5101333;28;20847;-83
2023/12/01 04:36:22;;;;;;;0.10;0.10;;;7.80;99.90;;;;;;5098871;28;20032;-83
2023/12/01 04:38:48;;;;;;;0.10;0.10;;;7.80;99.90;;;;;;5104804;27;20780;-82
2023/12/01 04:41:14;;;;;;;0.10;0.10;;;7.80;99.90;;;;;;5104169;28;20023;-84
2023/12/01 04:43:40;;;;;;;0.10;0.10;;;7.80;99.90;;;;;;5105073;28;20063;-83
2023/12/01 04:46:06;;;;;;;0.05;0.05;;;7.80;99.90;;;;;;5105220;28;20055;-83
2023/12/01 04:48:32;;;;;;;0.08;0.08;;;7.70;99.90;;;;;;5096043;28;20034;-83
2023/12/01 04:50:58;;;;;;;0.10;0.10;;;7.80;99.90;;;;;;5102388;28;20032;-82
2023/12/01 04:53:24;;;;;;;0.10;0.10;;;7.80;99.90;;;;;;5101207;28;20075;-82
2023/12/01 04:55:49;;;;;;;0.43;0.43;;;7.70;99.90;;;;;;5101462;28;20107;-83
2023/12/01 04:58:15;;;;;;;0.10;0.10;;;7.70;99.90;;;;;;5105050;28;20020;-82
2023/12/01 05:00:41;;;;;;;0.10;0.10;;;7.70;99.90;;;;;;5101318;28;20113;-83
2023/12/01 05:03:07;;;;;;;0.10;0.10;;;7.60;99.90;;;;;;5105022;28;20054;-82
2023/12/01 05:05:42;;;;;;;0.10;0.10;;;7.60;99.90;;;;;;5101644;28;20036;-83
2023/12/01 05:08:10;;;;;;;0.10;0.10;;;7.70;99.90;;;;;;5098474;28;20092;-82
2023/12/01 05:10:37;;;;;;;0.10;0.10;;;7.70;99.90;;;;;;5097011;28;20854;-84
2023/12/01 05:13:06;;;;;;;0.10;0.10;;;7.60;99.90;;;;;;5104624;28;20038;-81
2023/12/01 05:15:34;;;;;;;0.10;0.10;;;7.60;99.90;;;;;;5103071;28;20034;-83
2023/12/01 05:18:01;;;;;;;0.10;0.10;;;7.50;99.90;;;;;;5102822;28;20032;-81
2023/12/01 05:20:28;;;;;;;0.10;0.10;;;7.50;99.90;;;;;;5097137;28;20023;-82
2023/12/01 05:22:56;;;;;;;0.10;0.10;;;7.40;99.90;;;;;;5100954;28;20680;-82
2023/12/01 05:25:25;;;;;;;0.10;0.10;;;7.30;99.90;;;;;;5100504;28;20047;-81
2023/12/01 05:27:55;;;;;;;0.10;0.10;;;7.30;99.90;;;;;;5095811;28;20031;-82
2023/12/01 05:30:26;;;;;;;0.10;0.10;;;7.30;99.90;;;;;;5101847;28;20023;-85
2023/12/01 05:32:53;;;;;;;0.00;0.00;;;7.20;99.90;;;;;;5103649;27;20055;-81
2023/12/01 05:35:20;;;;;;;0.10;0.10;;;7.20;99.90;;;;;;5100782;27;20193;-82
2023/12/01 05:37:48;;;;;;;0.10;0.10;;;7.20;99.90;;;;;;5097567;28;21071;-82
2023/12/01 05:40:35;;;;;;;0.10;0.10;;;7.30;99.90;;;;;;5097950;28;20508;-82
2023/12/01 05:43:02;;;;;;;0.10;0.10;;;7.20;99.90;;;;;;5100066;28;20059;-86
2023/12/01 05:45:29;;;;;;;0.10;0.10;;;7.20;99.90;;;;;;5102902;28;20024;-82
2023/12/01 05:47:56;;;;;;;0.10;0.10;;;7.20;99.90;;;;;;5097453;28;20138;-81
2023/12/01 05:50:30;;;;;;;0.10;0.10;;;7.30;99.90;;;;;;5096924;28;20016;-83
2023/12/01 05:52:57;;;;;;;0.10;0.10;;;7.30;99.90;;;;;;5095547;28;20108;-80
2023/12/01 05:55:28;;;;;;;0.10;0.10;;;7.30;99.90;;;;;;5101010;27;20012;-82
2023/12/01 05:57:54;;;;;;;0.10;0.10;;;7.40;99.90;;;;;;5098570;28;20692;-81
2023/12/01 06:00:29;;;;;;;0.10;0.10;;;7.30;99.90;;;;;;5098385;28;20042;-81
2023/12/01 06:02:57;;;;;;;0.10;0.10;;;7.30;99.90;;;;;;5099669;28;20544;-82
2023/12/01 06:05:23;;;;;;;0.10;0.10;;;7.20;99.90;;;;;;5101661;28;20031;-80
2023/12/01 06:07:58;;;;;;;0.10;0.10;;;7.20;99.90;;;;;;5101881;28;20488;-79
2023/12/01 06:10:26;;;;;;;0.10;0.10;;;7.30;99.90;;;;;;5094676;28;20028;-84
2023/12/01 06:12:52;;;;;;;0.10;0.10;;;7.30;99.90;;;;;;5096063;28;20088;-81
2023/12/01 06:15:19;;;;;;;0.10;0.10;;;7.30;99.90;;;;;;5103249;28;20032;-83
2023/12/01 06:17:46;;;;;;;0.10;0.10;;;7.30;99.90;;;;;;5094798;28;20059;-80
2023/12/01 06:20:18;;;;;;;0.10;0.10;;;7.40;99.90;;;;;;5097476;28;20073;-84
2023/12/01 06:22:49;;;;;;;0.10;0.10;;;7.40;99.90;;;;;;5100816;28;20062;-80
2023/12/01 06:25:16;;;;;;;2.90;1.00;;;7.50;99.90;;;;;;5089914;28;20023;-82
2023/12/01 06:27:43;;;;;;;0.10;0.10;;;7.50;99.90;;;;;;5096652;28;20085;-83
2023/12/01 06:30:13;;;;;;;0.10;0.10;;;7.50;99.90;;;;;;5099952;28;20079;-83
2023/12/01 06:32:41;;;;;;;0.10;0.10;;;7.50;99.90;;;;;;5096260;28;20047;-82
2023/12/01 06:35:09;;;;;;;0.10;0.10;;;7.50;99.90;;;;;;5101844;28;20506;-82
2023/12/01 06:37:35;;;;;;;0.10;0.10;;;7.50;99.90;;;;;;5096535;28;20077;-82
2023/12/01 06:40:03;;;;;;;0.10;0.10;;;7.50;99.90;;;;;;5097812;28;20426;-83
2023/12/01 06:42:29;;;;;;;0.10;0.10;;;7.50;99.90;;;;;;5101615;28;20028;-81
2023/12/01 06:44:56;;;;;;;0.10;0.10;;;7.60;99.90;;;;;;5102456;28;20026;-81
2023/12/01 06:47:22;;;;;;;0.10;0.10;;;7.60;99.90;;;;;;5103592;28;20036;-83
2023/12/01 06:49:48;;;;;;;0.10;0.10;;;7.60;99.90;;;;;;5097504;28;20077;-82
2023/12/01 06:52:15;;;;;;;0.10;0.10;;;7.50;99.90;;;;;;5098915;28;20028;-83
2023/12/01 06:54:40;;;;;;;0.10;0.10;;;7.50;99.90;;;;;;5101205;28;20032;-82
2023/12/01 06:57:06;;;;;;;0.10;0.10;;;7.50;99.90;;;;;;5104875;28;20034;-82
2023/12/01 06:59:32;;;;;;;0.10;0.10;;;7.50;99.90;;;;;;5095960;28;20461;-84
2023/12/01 07:01:58;;;;;;;0.32;0.32;;;7.40;99.90;;;;;;5106504;28;20058;-82
2023/12/01 07:04:24;;;;;;;0.10;0.10;;;7.50;99.90;;;;;;5106523;28;20032;-82
2023/12/01 07:06:50;;;;;;;0.10;0.10;;;7.40;99.90;;;;;;5099003;28;20580;-82
2023/12/01 07:09:19;;;;;;;0.20;0.20;;;7.40;99.90;;;;;;5102202;28;20080;-81
2023/12/01 07:11:46;;;;;;;0.10;0.10;;;7.50;99.90;;;;;;5106018;27;20027;-81
2023/12/01 07:14:12;;;;;;;0.05;0.05;;;7.50;99.90;;;;;;5105766;28;20032;-84
2023/12/01 07:16:40;;;;;;;0.90;0.90;;;7.40;99.90;;;;;;5104244;28;20085;-83
2023/12/01 07:19:07;;;;;;;1.42;1.40;;;7.50;99.90;;;;;;5083593;28;20036;-83
2023/12/01 07:21:33;;;;;;;0.47;0.43;;;7.50;99.90;;;;;;5105238;28;20028;-83
2023/12/01 07:24:02;;;;;;;1.38;1.27;;;7.50;99.90;;;;;;5104843;28;20448;-83
2023/12/01 07:26:28;;;;;;;0.10;0.10;;;7.60;99.90;;;;;;5106384;27;20024;-83
2023/12/01 07:28:53;;;;;;;0.10;0.10;;;7.60;99.90;;;;;;5106318;27;20024;-83
2023/12/01 07:31:19;;;;;;;0.10;0.10;;;7.50;99.90;;;;;;5103963;28;20058;-83
2023/12/01 07:33:45;;;;;;;0.00;0.00;;;7.50;99.90;;;;;;5106553;28;20085;-83
2023/12/01 07:36:11;;;;;;;0.10;0.10;;;7.50;99.90;;;;;;5106059;28;20027;-83
2023/12/01 07:38:37;;;;;;;0.10;0.10;;;7.50;99.90;;;;;;5106297;28;20020;-83
2023/12/01 07:41:02;;;;;;;0.00;0.00;;;7.50;99.90;;;;;;5106094;28;20035;-83
2023/12/01 07:43:28;;;;;;;0.00;0.00;;;7.50;99.90;;;;;;5106254;28;20752;-83
2023/12/01 07:45:57;;;;;;;0.10;0.10;;;7.50;99.90;;;;;;5106199;28;20019;-83
2023/12/01 07:48:22;;;;;;;0.10;0.10;;;7.50;99.90;;;;;;5105037;28;20056;-83
2023/12/01 07:50:48;;;;;;;0.10;0.10;;;7.40;99.90;;;;;;5098518;28;20027;-83
2023/12/01 07:53:14;;;;;;;0.00;0.00;;;7.50;99.90;;;;;;5104328;28;20111;-83
2023/12/01 07:55:43;;;;;;;0.07;0.07;;;7.40;99.90;;;;;;5105785;28;20470;-83
2023/12/01 07:58:09;;;;;;;0.10;0.10;;;7.50;99.90;;;;;;5106413;28;20054;-83
2023/12/01 08:00:40;;;;;;;0.10;0.10;;;7.50;99.90;;;;;;5105744;28;20134;-83
2023/12/01 08:03:06;;;;;;;0.10;0.10;;;7.50;99.90;;;;;;5105892;28;20039;-83
2023/12/01 08:05:32;;;;;;;0.10;0.10;;;7.50;99.90;;;;;;5105678;28;20020;-83
2023/12/01 08:07:58;;;;;;;0.10;0.10;;;7.50;99.90;;;;;;5102847;28;20030;-83
2023/12/01 08:10:24;;;;;;;0.10;0.10;;;7.50;99.90;;;;;;5100639;28;20028;-83
2023/12/01 08:12:51;;;;;;;0.10;0.10;;;7.50;99.90;;;;;;5105686;28;20030;-83
2023/12/01 08:15:17;;;;;;;0.00;0.00;;;7.50;99.90;;;;;;5105270;28;20035;-83
2023/12/01 08:17:44;;;;;;;0.30;0.30;;;7.60;99.90;;;;;;5105375;28;20020;-83
2023/12/01 08:20:12;;;;;;;;;;;7.60;99.90;;;;;;5104479;28;20024;-83
2023/12/01 08:22:39;;;;;;;0.10;0.10;;;7.60;99.90;;;;;;5104643;28;19907;-83
2023/12/01 08:25:06;;;;;;;0.08;0.08;;;7.60;99.90;;;;;;5091404;28;20035;-83
2023/12/01 08:27:33;;;;;;;0.10;0.10;;;7.60;99.90;;;;;;5105167;28;20037;-83
2023/12/01 08:29:59;;;;;;;0.00;0.00;;;7.70;99.90;;;;;;5104714;28;20468;-83
2023/12/01 08:32:24;;;;;;;0.10;0.10;;;7.70;99.90;;;;;;5104540;28;20768;-83
2023/12/01 08:34:51;;;;;;;0.10;0.10;;;7.80;99.90;;;;;;5104829;28;20771;-83
2023/12/01 08:37:17;;;;;;;0.10;0.10;;;7.80;99.90;;;;;;5104984;28;20055;-84
2023/12/01 08:39:44;;;;;;;0.10;0.10;;;7.80;99.90;;;;;;5104407;28;20028;-83
2023/12/01 08:42:09;;;;;;;0.10;0.10;;;7.90;99.90;;;;;;5094341;28;20114;-83
2023/12/01 08:44:35;;;;;;;0.10;0.10;;;7.80;99.90;;;;;;5104443;28;20152;-83
2023/12/01 08:47:01;;;;;;;0.10;0.10;;;7.80;99.90;;;;;;5104850;28;20032;-83
2023/12/01 08:49:27;;;;;;;0.00;0.00;;;7.70;99.90;;;;;;5104485;28;20020;-83
2023/12/01 08:51:55;;;;;;;0.03;0.03;;;7.70;99.90;;;;;;5104885;28;20036;-83
2023/12/01 08:54:22;;;;;;;0.10;0.10;;;7.60;99.90;;;;;;5102147;28;20031;-83
2023/12/01 08:56:48;;;;;;;0.10;0.10;;;7.60;99.90;;;;;;5104890;28;20057;-83
2023/12/01 08:59:13;;;;;;;0.10;0.10;;;7.60;99.90;;;;;;5104032;28;20850;-83
2023/12/01 09:01:40;;;;;;;0.00;0.00;;;7.60;99.90;;;;;;5104329;28;20047;-83
2023/12/01 09:04:09;;;;;;;;;;;7.70;99.90;;;;;;5105089;28;20474;-83
2023/12/01 09:06:36;;;;;;;0.10;0.10;;;7.80;99.90;;;;;;5104211;28;20010;-83
2023/12/01 09:09:02;;;;;;;0.10;0.10;;;7.90;99.90;;;;;;5102289;28;20442;-83
2023/12/01 09:11:29;;;;;;;0.10;0.10;;;7.90;99.90;;;;;;5104557;28;20028;-83
2023/12/01 09:13:54;;;;;;;0.10;0.10;;;7.90;99.90;;;;;;5104221;28;20032;-83
2023/12/01 09:16:23;;;;;;;0.10;0.10;;;7.90;99.90;;;;;;5104253;28;20043;-83
2023/12/01 09:18:50;;;;;;;0.08;0.08;;;7.90;99.90;;;;;;5104472;28;20152;-83
2023/12/01 09:21:16;;;;;;;0.10;0.10;;;7.90;99.90;;;;;;5103920;28;21190;-83
2023/12/01 09:23:41;;;;;;;0.10;0.10;;;7.90;99.90;;;;;;5092007;28;20023;-83
2023/12/01 09:26:07;;;;;;;0.10;0.10;;;8.00;99.90;;;;;;5094866;28;20368;-83
2023/12/01 09:28:36;;;;;;;0.10;0.10;;;7.90;99.90;;;;;;5104440;28;20096;-82
2023/12/01 09:31:03;;;;;;;0.10;0.10;;;7.90;99.90;;;;;;5103420;28;20545;-83
2023/12/01 09:33:30;;;;;;;0.10;0.10;;;8.00;99.90;;;;;;5103214;28;20042;-82
2023/12/01 09:35:56;;;;;;;0.10;0.10;;;8.00;99.90;;;;;;5104089;28;20030;-84
2023/12/01 09:38:22;;;;;;;0.10;0.10;;;8.00;99.90;;;;;;5103405;28;20826;-83
2023/12/01 09:40:47;;;;;;;0.10;0.10;;;7.90;99.90;;;;;;5102567;28;20519;-83
2023/12/01 09:43:17;;;;;;;0.10;0.10;;;7.90;99.90;;;;;;5103880;28;20031;-83
2023/12/01 09:45:43;;;;;;;0.10;0.10;;;8.00;99.90;;;;;;5103731;28;20023;-83
2023/12/01 09:48:10;;;;;;;0.10;0.10;;;8.00;99.90;;;;;;5102120;28;20035;-83
2023/12/01 09:50:36;;;;;;;0.10;0.10;;;7.90;99.90;;;;;;5103270;28;20106;-83
2023/12/01 09:53:02;;;;;;;0.10;0.10;;;8.00;99.90;;;;;;5103194;28;20555;-83
2023/12/01 09:55:29;;;;;;;0.10;0.10;;;8.00;99.90;;;;;;5101757;28;20061;-83
2023/12/01 09:57:56;;;;;;;0.10;0.10;;;8.10;99.90;;;;;;5103713;28;20399;-83
2023/12/01 10:00:22;;;;;;;0.10;0.10;;;7.90;99.90;;;;;;5103107;28;20052;-83
2023/12/01 10:02:48;;;;;;;0.10;0.10;;;7.90;99.90;;;;;;5103297;28;20088;-83
2023/12/01 10:05:18;;;;;;;0.10;0.10;;;7.90;99.90;;;;;;5095564;28;20027;-83
2023/12/01 10:07:44;;;;;;;0.10;0.10;;;8.00;99.90;;;;;;5100790;28;20057;-83
2023/12/01 10:10:25;;;;;;;0.10;0.10;;;8.10;99.90;;;;;;5102614;28;20149;-83
2023/12/01 10:12:58;;;;;;;0.20;0.20;;;8.00;99.90;;;;;;5098014;28;20027;-83
2023/12/01 10:15:25;;;;;;;0.10;0.10;;;8.10;99.90;;;;;;5103156;28;20778;-83
2023/12/01 10:17:52;;;;;;;0.10;0.10;;;8.20;99.90;;;;;;5103445;28;20030;-83
2023/12/01 10:20:21;;;;;;;0.10;0.10;;;8.20;99.90;;;;;;5103427;28;20015;-83
2023/12/01 10:22:48;;;;;;;0.10;0.10;;;8.30;99.90;;;;;;5103054;28;20116;-83
2023/12/01 10:25:14;;;;;;;0.10;0.10;;;8.20;99.90;;;;;;5089115;28;20268;-83
2023/12/01 10:27:40;;;;;;;0.10;0.10;;;8.30;99.90;;;;;;5102986;28;20569;-81
2023/12/01 10:30:13;;;;;;;0.10;0.10;;;8.30;99.90;;;;;;5103002;28;20102;-83
2023/12/01 10:32:41;;;;;;;0.10;0.10;;;8.40;99.90;;;;;;5101355;28;20024;-83
2023/12/01 10:35:07;;;;;;;0.10;0.10;;;8.10;99.90;;;;;;5101909;28;20035;-83
2023/12/01 10:37:35;;;;;;;0.10;0.10;;;8.20;99.90;;;;;;5102806;28;20023;-83
2023/12/01 10:40:05;;;;;;;0.10;0.10;;;8.40;99.90;;;;;;5102546;28;20027;-83
2023/12/01 10:42:34;;;;;;;0.10;0.10;;;8.40;99.90;;;;;;5103055;28;20027;-83
2023/12/01 10:45:03;;;;;;;0.10;0.10;;;8.30;99.90;;;;;;5102883;28;20040;-83
2023/12/01 10:47:29;;;;;;;0.10;0.10;;;8.20;99.90;;;;;;5103142;28;20020;-83
2023/12/01 10:49:56;;;;;;;0.05;0.05;;;8.20;99.90;;;;;;5095300;28;20028;-83
2023/12/01 10:52:24;;;;;;;0.10;0.10;;;8.40;99.90;;;;;;5102132;28;20704;-83
2023/12/01 10:54:50;;;;;;;0.10;0.10;;;8.50;99.90;;;;;;5100292;28;20035;-83
2023/12/01 10:57:35;;;;;;;0.10;0.10;;;8.40;99.90;;;;;;5102756;28;20361;-83
2023/12/01 11:00:06;;;;;;;0.10;0.10;;;8.30;99.90;;;;;;5102200;28;20023;-83
2023/12/01 11:02:34;;;;;;;0.10;0.10;;;8.40;99.90;;;;;;5101311;28;20092;-83
2023/12/01 11:05:01;;;;;;;0.10;0.10;;;8.20;99.90;;;;;;5102725;28;20050;-83
2023/12/01 11:07:39;;;;;;;0.10;0.10;;;8.20;99.90;;;;;;5102803;28;20023;-83
2023/12/01 11:10:14;;;;;;;0.10;0.10;;;8.20;99.90;;;;;;5102367;28;20077;-83
2023/12/01 11:12:58;;;;;;;0.10;0.10;;;8.20;99.90;;;;;;5096328;28;20109;-83
2023/12/01 11:15:27;;;;;;;0.00;0.00;;;8.40;99.90;;;;;;5102089;28;20138;-83
2023/12/01 11:17:55;;;;;;;0.00;0.00;;;8.30;99.90;;;;;;5100916;28;20042;-83
2023/12/01 11:20:34;;;;;;;0.20;0.20;;;8.40;99.90;;;;;;5102090;28;20111;-83
2023/12/01 11:23:16;;;;;;;0.10;0.10;;;8.50;99.90;;;;;;5102083;28;20436;-83
2023/12/01 11:25:48;;;;;;;0.10;0.10;;;8.50;99.90;;;;;;5102208;28;20043;-83
2023/12/01 11:31:19;;;;;;;0.10;0.10;;;8.60;99.90;;;;;;5092106;28;20709;-83
2023/12/01 11:33:47;;;;;;;0.10;0.10;;;8.40;99.90;;;;;;5101628;28;20115;-83
2023/12/01 11:36:19;;;;;;;0.80;0.63;;;8.50;99.90;;;;;;5102331;28;20022;-83
2023/12/01 11:39:10;;;;;;;0.10;0.10;;;8.40;99.90;;;;;;5100961;28;20027;-83
2023/12/01 11:42:00;;;;;;;0.00;0.00;;;8.30;99.90;;;;;;5101959;28;20026;-83
2023/12/01 11:44:32;;;;;;;0.05;0.05;;;8.40;99.90;;;;;;5092788;28;20027;-83
2023/12/01 11:46:59;;;;;;;0.10;0.10;;;8.40;99.90;;;;;;5098113;28;20039;-83
2023/12/01 11:49:30;;;;;;;0.10;0.10;;;8.20;99.90;;;;;;5105929;28;20026;-83
2023/12/01 11:51:56;;;;;;;0.00;0.00;;;8.10;99.90;;;;;;5105938;28;20023;-83
2023/12/01 11:54:22;;;;;;;0.00;0.00;;;8.30;99.90;;;;;;5103478;28;20095;-83
2023/12/01 11:56:53;;;;;;;0.08;0.08;;;8.50;99.90;;;;;;5105951;28;20038;-83
2023/12/01 11:59:19;;;;;;;0.10;0.10;;;8.40;99.90;;;;;;5104558;28;20023;-83
2023/12/01 12:01:46;;;;;;;0.10;0.10;;;8.30;99.90;;;;;;5104052;28;20071;-83
2023/12/01 12:04:16;;;;;;;0.10;0.10;;;8.20;99.90;;;;;;5105732;27;20027;-83
2023/12/01 12:06:43;;;;;;;0.10;0.10;;;8.30;99.90;;;;;;5106080;28;20047;-83
2023/12/01 12:09:10;;;;;;;0.10;0.10;;;8.10;99.90;;;;;;5105388;28;20027;-83
2023/12/01 12:11:36;;;;;;;1.42;1.38;;;8.00;99.90;;;;;;5105751;28;20111;-83
2023/12/01 12:14:04;;;;;;;0.10;0.10;;;8.10;99.90;;;;;;5105181;28;20486;-82
2023/12/01 12:16:30;;;;;;;0.17;0.17;;;8.00;99.90;;;;;;5105473;28;20057;-83
2023/12/01 12:18:59;;;;;;;0.10;0.10;;;8.00;99.90;;;;;;5105429;28;20123;-83
2023/12/01 12:21:27;;;;;;;0.10;0.10;;;8.00;99.90;;;;;;5105055;28;20031;-83
2023/12/01 12:23:53;;;;;;;0.00;0.00;;;7.80;99.90;;;;;;5099888;28;20578;-82
2023/12/01 12:26:22;;;;;;;0.10;0.10;;;8.00;99.90;;;;;;5097193;28;20027;-83
2023/12/01 12:28:59;;;;;;;0.10;0.10;;;7.90;99.90;;;;;;5105097;28;20032;-83
2023/12/01 12:31:26;;;;;;;0.10;0.10;;;7.70;99.90;;;;;;5104071;28;20047;-83
2023/12/01 12:33:52;;;;;;;;;;;7.80;99.90;;;;;;5105237;28;20030;-83
2023/12/01 12:36:19;;;;;;;0.10;0.10;;;8.00;99.90;;;;;;5105016;28;19947;-83
2023/12/01 12:38:50;;;;;;;;;;;8.10;99.90;;;;;;5103517;28;20860;-83
2023/12/01 12:41:23;;;;;;;0.10;0.10;;;8.00;99.90;;;;;;5105025;28;20643;-83
2023/12/01 12:44:00;;;;;;;0.05;0.05;;;8.20;99.90;;;;;;5104656;28;20065;-83
2023/12/01 12:46:28;;;;;;;0.30;0.30;;;8.20;99.90;;;;;;5102793;28;20024;-83
2023/12/01 12:49:10;;;;;;;0.10;0.10;;;8.10;99.90;;;;;;5104328;27;20019;-83
2023/12/01 12:51:37;;;;;;;0.10;0.10;;;8.10;99.90;;;;;;5100703;28;20542;-83
2023/12/01 12:54:06;;;;;;;0.08;0.08;;;7.90;99.90;;;;;;5103892;28;20716;-83
2023/12/01 12:56:33;;;;;;;0.10;0.10;;;7.80;99.90;;;;;;5103415;28;20035;-83
2023/12/01 12:58:59;;;;;;;0.08;0.08;;;7.80;99.90;;;;;;5104330;28;20047;-83
2023/12/01 13:01:26;;;;;;;0.10;0.10;;;7.80;99.90;;;;;;5103980;28;20139;-83